sensor_id;sensor_type;location;lat;lon;timestamp;P1;durP1;ratioP1;P2;durP2;ratioP2
26914;SDS011;14480;52.608;13.416;2022-10-04T06:59:31;15.20;;;2.80;;
26914;SDS011;14480;52.608;13.416;2022-10-04T07:04:51;14.13;;;2.50;;
26914;SDS011;14480;52.608;13.416;2022-10-04T07:10:27;11.55;;;2.63;;
26914;SDS011;14480;52.608;13.416;2022-10-04T07:15:40;20.98;;;3.65;;
26914;SDS011;14480;52.608;13.416;2022-10-04T07:20:51;12.10;;;3.15;;
26914;SDS011;14480;52.608;13.416;2022-10-04T07:26:03;16.13;;;4.13;;
26914;SDS011;14480;52.608;13.416;2022-10-04T07:31:11;15.32;;;3.40;;
26914;SDS011;14480;52.608;13.416;2022-10-04T07:36:23;13.52;;;3.97;;
26914;SDS011;14480;52.608;13.416;2022-10-04T07:41:33;15.50;;;4.00;;
26914;SDS011;14480;52.608;13.416;2022-10-04T07:46:47;18.77;;;4.25;;
26914;SDS011;14480;52.608;13.416;2022-10-04T07:52:01;14.55;;;3.00;;
26914;SDS011;14480;52.608;13.416;2022-10-04T07:57:17;10.32;;;2.70;;
26914;SDS011;14480;52.608;13.416;2022-10-04T08:02:33;17.45;;;3.22;;
26914;SDS011;14480;52.608;13.416;2022-10-04T08:13:49;14.52;;;3.17;;
26914;SDS011;14480;52.608;13.416;2022-10-04T08:19:00;12.50;;;3.22;;
26914;SDS011;14480;52.608;13.416;2022-10-04T08:24:25;15.43;;;3.40;;
26914;SDS011;14480;52.608;13.416;2022-10-04T08:29:43;13.32;;;3.70;;
26914;SDS011;14480;52.608;13.416;2022-10-04T08:35:12;15.77;;;3.83;;
26914;SDS011;14480;52.608;13.416;2022-10-04T08:46:24;11.25;;;3.72;;
26914;SDS011;14480;52.608;13.416;2022-10-04T08:52:03;16.05;;;3.88;;
26914;SDS011;14480;52.608;13.416;2022-10-04T08:57:43;9.40;;;3.60;;
26914;SDS011;14480;52.608;13.416;2022-10-04T09:14:46;11.37;;;3.63;;
26914;SDS011;14480;52.608;13.416;2022-10-04T09:20:10;9.05;;;3.30;;
26914;SDS011;14480;52.608;13.416;2022-10-04T09:25:48;9.40;;;3.30;;
26914;SDS011;14480;52.608;13.416;2022-10-04T09:31:17;8.02;;;3.17;;
26914;SDS011;14480;52.608;13.416;2022-10-04T09:42:35;7.47;;;3.83;;
26914;SDS011;14480;52.608;13.416;2022-10-04T09:47:52;9.05;;;3.13;;
26914;SDS011;14480;52.608;13.416;2022-10-04T09:53:21;8.25;;;3.30;;
26914;SDS011;14480;52.608;13.416;2022-10-04T09:58:52;9.95;;;2.80;;
26914;SDS011;14480;52.608;13.416;2022-10-04T10:04:18;8.20;;;2.85;;
26914;SDS011;14480;52.608;13.416;2022-10-04T10:09:35;8.93;;;2.33;;
26914;SDS011;14480;52.608;13.416;2022-10-04T10:15:06;7.25;;;3.08;;
26914;SDS011;14480;52.608;13.416;2022-10-04T10:26:12;8.98;;;2.90;;
26914;SDS011;14480;52.608;13.416;2022-10-04T10:31:58;7.78;;;2.55;;
26914;SDS011;14480;52.608;13.416;2022-10-04T10:37:16;9.93;;;2.58;;
26914;SDS011;14480;52.608;13.416;2022-10-04T10:42:38;7.13;;;2.30;;
26914;SDS011;14480;52.608;13.416;2022-10-04T10:48:01;6.90;;;2.22;;
26914;SDS011;14480;52.608;13.416;2022-10-04T10:53:15;7.00;;;2.22;;
26914;SDS011;14480;52.608;13.416;2022-10-04T10:58:44;9.43;;;2.20;;
26914;SDS011;14480;52.608;13.416;2022-10-04T11:04:24;8.48;;;2.20;;
26914;SDS011;14480;52.608;13.416;2022-10-04T11:09:50;7.43;;;2.13;;
26914;SDS011;14480;52.608;13.416;2022-10-04T11:21:08;10.48;;;2.53;;
26914;SDS011;14480;52.608;13.416;2022-10-04T11:32:15;14.38;;;3.45;;
26914;SDS011;14480;52.608;13.416;2022-10-04T11:37:59;10.32;;;2.80;;
26914;SDS011;14480;52.608;13.416;2022-10-04T11:43:18;10.30;;;2.80;;
26914;SDS011;14480;52.608;13.416;2022-10-04T11:48:39;13.35;;;2.72;;
26914;SDS011;14480;52.608;13.416;2022-10-04T11:59:36;10.93;;;2.60;;
26914;SDS011;14480;52.608;13.416;2022-10-04T12:05:02;11.82;;;2.53;;
26914;SDS011;14480;52.608;13.416;2022-10-04T12:10:23;10.47;;;2.67;;
26914;SDS011;14480;52.608;13.416;2022-10-04T12:15:35;14.35;;;3.13;;
26914;SDS011;14480;52.608;13.416;2022-10-04T12:20:53;14.85;;;3.10;;
26914;SDS011;14480;52.608;13.416;2022-10-04T12:32:03;14.43;;;2.85;;
26914;SDS011;14480;52.608;13.416;2022-10-04T12:37:19;15.32;;;3.70;;
26914;SDS011;14480;52.608;13.416;2022-10-04T12:42:33;10.68;;;2.60;;
26914;SDS011;14480;52.608;13.416;2022-10-04T12:47:55;11.32;;;2.55;;
26914;SDS011;14480;52.608;13.416;2022-10-04T12:53:13;13.87;;;2.57;;
26914;SDS011;14480;52.608;13.416;2022-10-04T12:58:40;13.02;;;2.78;;
26914;SDS011;14480;52.608;13.416;2022-10-04T13:09:44;11.20;;;2.13;;
26914;SDS011;14480;52.608;13.416;2022-10-04T13:15:21;7.80;;;2.08;;
26914;SDS011;14480;52.608;13.416;2022-10-04T13:21:19;12.85;;;2.53;;
26914;SDS011;14480;52.608;13.416;2022-10-04T13:26:40;11.15;;;2.15;;
26914;SDS011;14480;52.608;13.416;2022-10-04T13:31:51;10.52;;;2.03;;
26914;SDS011;14480;52.608;13.416;2022-10-04T13:37:14;9.52;;;2.42;;
26914;SDS011;14480;52.608;13.416;2022-10-04T13:42:35;9.55;;;2.22;;
26914;SDS011;14480;52.608;13.416;2022-10-04T13:47:59;9.43;;;2.10;;
26914;SDS011;14480;52.608;13.416;2022-10-04T13:53:27;7.65;;;1.75;;
26914;SDS011;14480;52.608;13.416;2022-10-04T13:58:59;8.33;;;2.20;;
26914;SDS011;14480;52.608;13.416;2022-10-04T14:04:15;12.77;;;2.90;;
26914;SDS011;14480;52.608;13.416;2022-10-04T14:09:41;10.43;;;2.90;;
26914;SDS011;14480;52.608;13.416;2022-10-04T14:15:16;11.40;;;2.63;;
26914;SDS011;14480;52.608;13.416;2022-10-04T14:26:31;6.78;;;2.00;;
26914;SDS011;14480;52.608;13.416;2022-10-04T14:32:16;7.85;;;1.58;;
26914;SDS011;14480;52.608;13.416;2022-10-04T14:37:45;9.52;;;1.90;;
26914;SDS011;14480;52.608;13.416;2022-10-04T14:43:15;6.90;;;2.00;;
26914;SDS011;14480;52.608;13.416;2022-10-04T14:48:52;6.75;;;1.88;;
26914;SDS011;14480;52.608;13.416;2022-10-04T14:54:07;7.93;;;1.80;;
26914;SDS011;14480;52.608;13.416;2022-10-04T14:59:36;9.77;;;1.45;;
26914;SDS011;14480;52.608;13.416;2022-10-04T15:05:02;13.35;;;2.42;;
26914;SDS011;14480;52.608;13.416;2022-10-04T15:10:29;12.85;;;3.08;;
26914;SDS011;14480;52.608;13.416;2022-10-04T15:15:51;7.18;;;1.83;;
26914;SDS011;14480;52.608;13.416;2022-10-04T15:21:02;7.90;;;1.50;;
26914;SDS011;14480;52.608;13.416;2022-10-04T15:31:54;4.85;;;1.67;;
26914;SDS011;14480;52.608;13.416;2022-10-04T15:42:52;7.03;;;1.70;;
26914;SDS011;14480;52.608;13.416;2022-10-04T15:48:05;8.15;;;1.92;;
26914;SDS011;14480;52.608;13.416;2022-10-04T15:53:39;9.40;;;2.25;;
26914;SDS011;14480;52.608;13.416;2022-10-04T15:59:26;6.95;;;2.20;;
26914;SDS011;14480;52.608;13.416;2022-10-04T16:04:42;7.57;;;2.40;;
26914;SDS011;14480;52.608;13.416;2022-10-04T16:09:52;8.55;;;2.47;;
26914;SDS011;14480;52.608;13.416;2022-10-04T16:15:12;11.20;;;2.85;;
26914;SDS011;14480;52.608;13.416;2022-10-04T16:20:41;8.73;;;2.25;;
26914;SDS011;14480;52.608;13.416;2022-10-04T16:25:59;5.90;;;1.70;;
26914;SDS011;14480;52.608;13.416;2022-10-04T16:31:16;7.70;;;2.05;;
26914;SDS011;14480;52.608;13.416;2022-10-04T16:36:27;5.88;;;2.13;;
26914;SDS011;14480;52.608;13.416;2022-10-04T16:41:52;5.72;;;2.00;;
26914;SDS011;14480;52.608;13.416;2022-10-04T16:47:11;7.32;;;2.45;;
26914;SDS011;14480;52.608;13.416;2022-10-04T16:52:37;5.40;;;2.47;;
26914;SDS011;14480;52.608;13.416;2022-10-04T17:03:55;8.05;;;2.85;;
26914;SDS011;14480;52.608;13.416;2022-10-04T17:09:10;8.45;;;2.92;;
26914;SDS011;14480;52.608;13.416;2022-10-04T17:14:32;9.90;;;3.90;;
26914;SDS011;14480;52.608;13.416;2022-10-04T17:19:51;10.27;;;3.38;;
26914;SDS011;14480;52.608;13.416;2022-10-04T17:25:02;14.18;;;3.47;;
26914;SDS011;14480;52.608;13.416;2022-10-04T17:30:20;12.45;;;3.70;;
26914;SDS011;14480;52.608;13.416;2022-10-04T17:41:14;8.70;;;4.35;;
26914;SDS011;14480;52.608;13.416;2022-10-04T17:46:21;13.48;;;5.55;;
26914;SDS011;14480;52.608;13.416;2022-10-04T17:51:37;13.95;;;5.85;;
26914;SDS011;14480;52.608;13.416;2022-10-04T18:02:53;9.30;;;4.78;;
26914;SDS011;14480;52.608;13.416;2022-10-04T18:08:07;11.48;;;4.80;;
26914;SDS011;14480;52.608;13.416;2022-10-04T18:18:42;10.82;;;5.32;;
26914;SDS011;14480;52.608;13.416;2022-10-04T18:23:58;9.50;;;5.75;;
26914;SDS011;14480;52.608;13.416;2022-10-04T18:29:10;12.55;;;5.20;;
26914;SDS011;14480;52.608;13.416;2022-10-04T18:34:17;9.30;;;4.30;;
26914;SDS011;14480;52.608;13.416;2022-10-04T18:39:31;10.98;;;4.80;;
26914;SDS011;14480;52.608;13.416;2022-10-04T18:44:57;13.55;;;4.45;;
26914;SDS011;14480;52.608;13.416;2022-10-04T18:50:13;9.20;;;4.05;;
26914;SDS011;14480;52.608;13.416;2022-10-04T18:55:25;13.48;;;4.85;;
26914;SDS011;14480;52.608;13.416;2022-10-04T19:00:45;13.80;;;5.07;;
26914;SDS011;14480;52.608;13.416;2022-10-04T19:06:14;12.82;;;4.28;;
26914;SDS011;14480;52.608;13.416;2022-10-04T19:11:27;10.18;;;3.72;;
26914;SDS011;14480;52.608;13.416;2022-10-04T19:16:41;10.15;;;4.10;;
26914;SDS011;14480;52.608;13.416;2022-10-04T19:21:53;9.55;;;3.50;;
26914;SDS011;14480;52.608;13.416;2022-10-04T19:27:02;9.63;;;3.95;;
26914;SDS011;14480;52.608;13.416;2022-10-04T19:32:10;9.95;;;4.10;;
26914;SDS011;14480;52.608;13.416;2022-10-04T19:37:24;9.93;;;4.35;;
26914;SDS011;14480;52.608;13.416;2022-10-04T19:42:34;8.90;;;4.40;;
26914;SDS011;14480;52.608;13.416;2022-10-04T19:47:46;10.63;;;4.20;;
26914;SDS011;14480;52.608;13.416;2022-10-04T19:52:52;8.40;;;4.03;;
26914;SDS011;14480;52.608;13.416;2022-10-04T19:58:03;8.95;;;3.78;;
26914;SDS011;14480;52.608;13.416;2022-10-04T20:03:19;8.55;;;3.97;;
26914;SDS011;14480;52.608;13.416;2022-10-04T20:19:50;10.27;;;4.43;;
26914;SDS011;14480;52.608;13.416;2022-10-04T20:24:53;8.25;;;4.07;;
26914;SDS011;14480;52.608;13.416;2022-10-04T20:29:59;9.95;;;4.40;;
26914;SDS011;14480;52.608;13.416;2022-10-04T20:35:08;11.60;;;4.38;;
26914;SDS011;14480;52.608;13.416;2022-10-04T20:40:40;12.57;;;5.15;;
26914;SDS011;14480;52.608;13.416;2022-10-04T20:45:46;14.00;;;4.53;;
26914;SDS011;14480;52.608;13.416;2022-10-04T20:50:56;14.85;;;5.32;;
26914;SDS011;14480;52.608;13.416;2022-10-04T20:56:14;9.63;;;4.60;;
26914;SDS011;14480;52.608;13.416;2022-10-04T21:01:28;13.77;;;4.65;;
26914;SDS011;14480;52.608;13.416;2022-10-04T21:06:54;10.60;;;5.20;;
26914;SDS011;14480;52.608;13.416;2022-10-04T21:18:00;12.25;;;4.70;;
26914;SDS011;14480;52.608;13.416;2022-10-04T21:23:12;10.20;;;5.03;;
26914;SDS011;14480;52.608;13.416;2022-10-04T21:28:23;11.73;;;5.13;;
26914;SDS011;14480;52.608;13.416;2022-10-04T21:33:36;9.63;;;4.22;;
